1A9 weather

Prattville - Grouby Field
Prattville, Alabama, United States

Public forecast

Using degrees Fahrenheit for public forecast. Weather courtesy of forecast.io.

Current aviation weather report (METAR) for Prattville - Grouby Field

Retrieved 2019/10/18 00:35 UTC (0 seconds ago):

K1A9 180035Z AUTO 00000KT 10SM CLR 14/10 A2995 RMK AO2 T01370095

Closest aviation forecast (TAF) to Prattville - Grouby Field

Closest forecast is Maxwell Air Force Base, 8.2 nm (15.1 km) ESE. Retrieved 2019/10/17 19:23 UTC (5 hours ago):

TAF KMXF 171900Z 1719/1901 VRB06KT 9999 FEW310 QNH2989INS BECMG 1804/1805 VRB06KT 4800 BR BKN250 QNH2987INS BECMG 1813/1814 VRB06KT 9999 NSW BKN200 QNH2985INS TX22/1720Z TN10/1812Z LAST NO AMDS AFT 1803 NEXT 1811